MV Evnia — 5BJG3 — position and weather

sailwx.info

Track history (hours):
 
Tides and Currents Weather Stations Pressure Air Temp Water Temp Dewpoint Dewpoint Depression Visibility Wind Speed Wind Dir Waves Ship Positions

MV Evnia

Last reported at 2017-Oct-09 15:21 UTC. Time now 2017-Oct-22 23:17 UTC.
Position N 01°14' E 103°57'.
Warning: this ship's position is 13 days out of date.

Length 190 m; draft 6.5 m.

Type: Cargo ship. MMSI: 209279000.

Date/timePositionNaut miles runAvg speedWind from/ knotsBaromVisibWave heightAir tempDewpointWater temp
2017-Oct-09 15:21N 01°14' E 103°57'1 3.3
2017-Oct-09 15:00N 01°13' E 103°56'2 3.1
2017-Oct-09 14:30N 01°13' E 103°55'1 3.0
2017-Oct-09 14:00N 01°12' E 103°54'2 3.0
2017-Oct-09 13:29N 01°12' E 103°52'3 5.9
2017-Oct-09 13:00N 01°13' E 103°50'0 0.4
2017-Oct-09 12:28N 01°13' E 103°50'1 1.3
2017-Oct-09 12:00N 01°13' E 103°50'1 2.2
2017-Oct-09 11:30N 01°13' E 103°51'1 2.3
2017-Oct-09 11:00N 01°13' E 103°53'19 5.9
2017-Oct-09 07:49N 01°16' E 104°11'514.8
2017-Oct-09 07:29N 01°15' E 104°06'814.3
2017-Oct-09 06:57N 01°14' E 103°59'614.1
2017-Oct-09 06:31N 01°12' E 103°53'3 6.9
2017-Oct-09 06:00N 01°13' E 103°50'0 0.3
2017-Oct-09 05:30N 01°13' E 103°50'0 0.0
2017-Oct-09 05:00N 01°13' E 103°50'0 0.3
2017-Oct-09 04:30N 01°13' E 103°50'4 8.6
2017-Oct-09 04:00N 01°14' E 103°53'2 3.7
2017-Oct-09 03:30N 01°16' E 103°53'0 0.0
2017-Oct-07 15:20N 01°16' E 103°53'0 0.0
2017-Oct-07 15:00N 01°16' E 103°53'0 0.0
2017-Oct-07 14:30N 01°16' E 103°53'0 0.0
2017-Oct-07 14:00N 01°16' E 103°53'0 0.0
2017-Oct-07 13:30N 01°16' E 103°53'0 0.0
2017-Oct-07 13:00N 01°16' E 103°53'0 0.0
2017-Oct-07 12:30N 01°16' E 103°53'0 0.0
2017-Oct-07 11:59N 01°16' E 103°53'0 0.0
2017-Oct-07 11:30N 01°16' E 103°53'0 0.0
2017-Oct-07 11:01N 01°16' E 103°53'0 0.0
2017-Oct-07 10:30N 01°16' E 103°53'0 0.0
2017-Oct-07 10:00N 01°16' E 103°53'0 0.0
2017-Oct-07 09:16N 01°16' E 103°53'0 0.0
2017-Oct-07 07:42N 01°16' E 103°53'0 0.0
2017-Oct-07 07:29N 01°16' E 103°53'0 0.0
2017-Oct-07 06:56N 01°16' E 103°53'0 0.0
2017-Oct-07 06:30N 01°16' E 103°53'0 0.0
2017-Oct-07 06:00N 01°16' E 103°53'0 0.0
2017-Oct-07 05:30N 01°16' E 103°53'0 0.0
2017-Oct-07 04:57N 01°16' E 103°53'0 0.0
2017-Oct-07 04:22N 01°16' E 103°53'0 0.2
2017-Oct-07 03:52N 01°16' E 103°53'0 0.2
2017-Oct-07 03:28N 01°16' E 103°53'0 0.2
2017-Oct-07 02:47N 01°16' E 103°53'0 0.3
2017-Oct-07 02:25N 01°16' E 103°53'0 0.0
2017-Oct-07 01:56N 01°16' E 103°53'0 0.0
2017-Oct-07 01:27N 01°16' E 103°53'0 0.0
2017-Oct-07 00:51N 01°16' E 103°53'0 0.0
2017-Oct-07 00:29N 01°16' E 103°53'0 0.1
2017-Oct-07 00:00N 01°16' E 103°53'0 0.1
2017-Oct-06 23:29N 01°16' E 103°53'0 0.0
2017-Oct-06 22:51N 01°16' E 103°53'0 0.4
2017-Oct-06 22:30N 01°16' E 103°53'0 0.1
2017-Oct-06 21:55N 01°16' E 103°53'0 0.0
2017-Oct-06 21:15N 01°16' E 103°53'0 0.1
2017-Oct-06 21:00N 01°16' E 103°53'0 0.3
2017-Oct-06 20:25N 01°16' E 103°53'0 0.1
2017-Oct-06 19:57N 01°16' E 103°53'0 0.1
2017-Oct-06 19:28N 01°16' E 103°53'0 0.1
2017-Oct-06 18:52N 01°16' E 103°53'0 0.1
2017-Oct-06 18:26N 01°16' E 103°53'0 0.1
2017-Oct-06 17:58N 01°16' E 103°53'0 0.2
2017-Oct-06 17:30N 01°16' E 103°53'0 0.1
2017-Oct-06 16:57N 01°16' E 103°53'0 0.1
2017-Oct-06 16:19N 01°16' E 103°53'0 0.3
2017-Oct-06 15:46N 01°16' E 103°53'0 0.0
2017-Oct-06 15:20N 01°16' E 103°53'0 0.3
2017-Oct-06 14:58N 01°16' E 103°53'0 0.2
2017-Oct-06 14:28N 01°16' E 103°53'0 0.3
2017-Oct-06 13:58N 01°16' E 103°53'0 0.0
2017-Oct-06 13:26N 01°16' E 103°53'0 0.0
2017-Oct-06 12:51N 01°16' E 103°53'0 0.0
2017-Oct-06 12:29N 01°16' E 103°53'0 0.1
2017-Oct-06 11:57N 01°16' E 103°53'0 0.1
2017-Oct-06 11:28N 01°16' E 103°53'0 0.0
2017-Oct-06 10:53N 01°16' E 103°53'0 0.3
2017-Oct-06 10:30N 01°16' E 103°53'0 0.0
2017-Oct-06 09:56N 01°16' E 103°53'0 0.1
2017-Oct-06 09:20N 01°16' E 103°53'0 0.2
2017-Oct-06 09:00N 01°16' E 103°53'0 0.1
2017-Oct-06 07:52N 01°16' E 103°53'0 0.4
2017-Oct-06 07:23N 01°16' E 103°53'0 0.0
2017-Oct-06 06:58N 01°16' E 103°53'0 0.0
2017-Oct-06 06:28N 01°16' E 103°53'0 0.3
2017-Oct-06 06:00N 01°16' E 103°53'0 0.0
2017-Oct-06 05:29N 01°16' E 103°53'0 0.0
2017-Oct-06 04:59N 01°16' E 103°53'0 0.0
2017-Oct-06 04:28N 01°16' E 103°53'0 0.1
2017-Oct-06 03:42N 01°16' E 103°53'0 0.0
2017-Oct-06 03:29N 01°16' E 103°53'0 0.1
2017-Oct-06 03:00N 01°16' E 103°53'0 0.1
2017-Oct-06 02:30N 01°16' E 103°53'0 0.1
2017-Oct-06 01:54N 01°16' E 103°53'0 0.0
2017-Oct-06 01:29N 01°16' E 103°53'0 0.1
2017-Oct-06 00:56N 01°16' E 103°53'0 0.0
2017-Oct-06 00:24N 01°16' E 103°53'0 0.0
2017-Oct-05 23:58N 01°16' E 103°53'0 0.1
2017-Oct-05 23:26N 01°16' E 103°53'0 0.1
2017-Oct-05 22:57N 01°16' E 103°53'0 0.3
2017-Oct-05 22:28N 01°16' E 103°53'0 0.3
2017-Oct-05 21:56N 01°16' E 103°53'0 0.0
2017-Oct-05 21:27N 01°16' E 103°53'0 0.1
2017-Oct-05 20:55N 01°16' E 103°53'0 0.0
2017-Oct-05 20:30N 01°16' E 103°53'0 0.1
2017-Oct-05 19:54N 01°16' E 103°53'0 0.4
2017-Oct-05 19:29N 01°16' E 103°53'0 0.4
2017-Oct-05 19:00N 01°16' E 103°53'0 0.2
2017-Oct-05 18:22N 01°16' E 103°53'0 0.4
2017-Oct-05 18:00N 01°16' E 103°53'0 0.8
2017-Oct-05 17:30N 01°16' E 103°53'1 1.4
2017-Oct-05 17:00N 01°16' E 103°54'2 1.1
2017-Oct-05 15:30N 01°14' E 103°54'0 0.3
2017-Oct-05 14:59N 01°14' E 103°54'1 1.2
2017-Oct-05 14:30N 01°13' E 103°54'1 1.4
2017-Oct-05 14:00N 01°13' E 103°54'4 7.5
2017-Oct-05 13:29N 01°16' E 103°53'0 0.0
2017-Oct-05 12:55N 01°16' E 103°53'0 0.0
2017-Oct-05 12:29N 01°16' E 103°53'0 0.0
2017-Oct-05 11:55N 01°16' E 103°53'0 0.0
2017-Oct-05 11:29N 01°16' E 103°53'0 0.0
2017-Oct-05 11:00N 01°16' E 103°53'0 0.0
2017-Oct-05 10:29N 01°16' E 103°53'0 0.1
2017-Oct-05 09:34N 01°16' E 103°53'0 0.0
2017-Oct-05 09:11N 01°16' E 103°53'0 0.1
2017-Oct-05 08:59N 01°16' E 103°53'0 0.1
2017-Oct-05 08:14N 01°16' E 103°53'0 0.0
2017-Oct-05 07:55N 01°16' E 103°53'0 0.0
2017-Oct-05 07:29N 01°16' E 103°53'0 0.0
2017-Oct-05 06:58N 01°16' E 103°53'0 0.1
2017-Oct-05 06:30N 01°16' E 103°53'0 0.4
2017-Oct-05 06:00N 01°16' E 103°53'3 5.1
2017-Oct-05 05:30N 01°14' E 103°54'2 4.5
2017-Oct-05 05:00N 01°12' E 103°53'510.0
2017-Oct-05 04:30N 01°10' E 103°49'4 8.3
2017-Oct-05 04:00N 01°07' E 103°45'4 8.6
2017-Oct-05 03:30N 01°04' E 103°42'5 9.8
2017-Oct-05 03:00N 01°04' E 103°37'713.1
2017-Oct-05 02:30N 01°07' E 103°32'714.0
2017-Oct-05 02:00N 01°11' E 103°26'814.1
2017-Oct-05 01:27N 01°16' E 103°20'  
Track history (hours):
 
Tides and Currents Weather Stations Pressure Air Temp Water Temp Dewpoint Dewpoint Depression Visibility Wind Speed Wind Dir Waves Ship Positions

MV Evnia

Last reported at 2017-Oct-09 15:21 UTC. Time now 2017-Oct-22 23:17 UTC.
Position N 01°14' E 103°57'.
Warning: this ship's position is 13 days out of date.

Length 190 m; draft 6.5 m.

Type: Cargo ship. MMSI: 209279000.

Date/timePositionNaut miles runAvg speedWind from/ knotsBaromVisibWave heightAir tempDewpointWater temp
2017-Oct-09 15:21N 01°14' E 103°57'1 3.3
2017-Oct-09 15:00N 01°13' E 103°56'2 3.1
2017-Oct-09 14:30N 01°13' E 103°55'1 3.0
2017-Oct-09 14:00N 01°12' E 103°54'2 3.0
2017-Oct-09 13:29N 01°12' E 103°52'3 5.9
2017-Oct-09 13:00N 01°13' E 103°50'0 0.4
2017-Oct-09 12:28N 01°13' E 103°50'1 1.3
2017-Oct-09 12:00N 01°13' E 103°50'1 2.2
2017-Oct-09 11:30N 01°13' E 103°51'1 2.3
2017-Oct-09 11:00N 01°13' E 103°53'19 5.9
2017-Oct-09 07:49N 01°16' E 104°11'514.8
2017-Oct-09 07:29N 01°15' E 104°06'814.3
2017-Oct-09 06:57N 01°14' E 103°59'614.1
2017-Oct-09 06:31N 01°12' E 103°53'3 6.9
2017-Oct-09 06:00N 01°13' E 103°50'0 0.3
2017-Oct-09 05:30N 01°13' E 103°50'0 0.0
2017-Oct-09 05:00N 01°13' E 103°50'0 0.3
2017-Oct-09 04:30N 01°13' E 103°50'4 8.6
2017-Oct-09 04:00N 01°14' E 103°53'2 3.7
2017-Oct-09 03:30N 01°16' E 103°53'0 0.0
2017-Oct-07 15:20N 01°16' E 103°53'0 0.0
2017-Oct-07 15:00N 01°16' E 103°53'0 0.0
2017-Oct-07 14:30N 01°16' E 103°53'0 0.0
2017-Oct-07 14:00N 01°16' E 103°53'0 0.0
2017-Oct-07 13:30N 01°16' E 103°53'0 0.0
2017-Oct-07 13:00N 01°16' E 103°53'0 0.0
2017-Oct-07 12:30N 01°16' E 103°53'0 0.0
2017-Oct-07 11:59N 01°16' E 103°53'0 0.0
2017-Oct-07 11:30N 01°16' E 103°53'0 0.0
2017-Oct-07 11:01N 01°16' E 103°53'0 0.0
2017-Oct-07 10:30N 01°16' E 103°53'0 0.0
2017-Oct-07 10:00N 01°16' E 103°53'0 0.0
2017-Oct-07 09:16N 01°16' E 103°53'0 0.0
2017-Oct-07 07:42N 01°16' E 103°53'0 0.0
2017-Oct-07 07:29N 01°16' E 103°53'0 0.0
2017-Oct-07 06:56N 01°16' E 103°53'0 0.0
2017-Oct-07 06:30N 01°16' E 103°53'0 0.0
2017-Oct-07 06:00N 01°16' E 103°53'0 0.0
2017-Oct-07 05:30N 01°16' E 103°53'0 0.0
2017-Oct-07 04:57N 01°16' E 103°53'0 0.0
2017-Oct-07 04:22N 01°16' E 103°53'0 0.2
2017-Oct-07 03:52N 01°16' E 103°53'0 0.2
2017-Oct-07 03:28N 01°16' E 103°53'0 0.2
2017-Oct-07 02:47N 01°16' E 103°53'0 0.3
2017-Oct-07 02:25N 01°16' E 103°53'0 0.0
2017-Oct-07 01:56N 01°16' E 103°53'0 0.0
2017-Oct-07 01:27N 01°16' E 103°53'0 0.0
2017-Oct-07 00:51N 01°16' E 103°53'0 0.0
2017-Oct-07 00:29N 01°16' E 103°53'0 0.1
2017-Oct-07 00:00N 01°16' E 103°53'0 0.1
2017-Oct-06 23:29N 01°16' E 103°53'0 0.0
2017-Oct-06 22:51N 01°16' E 103°53'0 0.4
2017-Oct-06 22:30N 01°16' E 103°53'0 0.1
2017-Oct-06 21:55N 01°16' E 103°53'0 0.0
2017-Oct-06 21:15N 01°16' E 103°53'0 0.1
2017-Oct-06 21:00N 01°16' E 103°53'0 0.3
2017-Oct-06 20:25N 01°16' E 103°53'0 0.1
2017-Oct-06 19:57N 01°16' E 103°53'0 0.1
2017-Oct-06 19:28N 01°16' E 103°53'0 0.1
2017-Oct-06 18:52N 01°16' E 103°53'0 0.1
2017-Oct-06 18:26N 01°16' E 103°53'0 0.1
2017-Oct-06 17:58N 01°16' E 103°53'0 0.2
2017-Oct-06 17:30N 01°16' E 103°53'0 0.1
2017-Oct-06 16:57N 01°16' E 103°53'0 0.1
2017-Oct-06 16:19N 01°16' E 103°53'0 0.3
2017-Oct-06 15:46N 01°16' E 103°53'0 0.0
2017-Oct-06 15:20N 01°16' E 103°53'0 0.3
2017-Oct-06 14:58N 01°16' E 103°53'0 0.2
2017-Oct-06 14:28N 01°16' E 103°53'0 0.3
2017-Oct-06 13:58N 01°16' E 103°53'0 0.0
2017-Oct-06 13:26N 01°16' E 103°53'0 0.0
2017-Oct-06 12:51N 01°16' E 103°53'0 0.0
2017-Oct-06 12:29N 01°16' E 103°53'0 0.1
2017-Oct-06 11:57N 01°16' E 103°53'0 0.1
2017-Oct-06 11:28N 01°16' E 103°53'0 0.0
2017-Oct-06 10:53N 01°16' E 103°53'0 0.3
2017-Oct-06 10:30N 01°16' E 103°53'0 0.0
2017-Oct-06 09:56N 01°16' E 103°53'0 0.1
2017-Oct-06 09:20N 01°16' E 103°53'0 0.2
2017-Oct-06 09:00N 01°16' E 103°53'0 0.1
2017-Oct-06 07:52N 01°16' E 103°53'0 0.4
2017-Oct-06 07:23N 01°16' E 103°53'0 0.0
2017-Oct-06 06:58N 01°16' E 103°53'0 0.0
2017-Oct-06 06:28N 01°16' E 103°53'0 0.3
2017-Oct-06 06:00N 01°16' E 103°53'0 0.0
2017-Oct-06 05:29N 01°16' E 103°53'0 0.0
2017-Oct-06 04:59N 01°16' E 103°53'0 0.0
2017-Oct-06 04:28N 01°16' E 103°53'0 0.1
2017-Oct-06 03:42N 01°16' E 103°53'0 0.0
2017-Oct-06 03:29N 01°16' E 103°53'0 0.1
2017-Oct-06 03:00N 01°16' E 103°53'0 0.1
2017-Oct-06 02:30N 01°16' E 103°53'0 0.1
2017-Oct-06 01:54N 01°16' E 103°53'0 0.0
2017-Oct-06 01:29N 01°16' E 103°53'0 0.1
2017-Oct-06 00:56N 01°16' E 103°53'0 0.0
2017-Oct-06 00:24N 01°16' E 103°53'0 0.0
2017-Oct-05 23:58N 01°16' E 103°53'0 0.1
2017-Oct-05 23:26N 01°16' E 103°53'0 0.1
2017-Oct-05 22:57N 01°16' E 103°53'0 0.3
2017-Oct-05 22:28N 01°16' E 103°53'0 0.3
2017-Oct-05 21:56N 01°16' E 103°53'0 0.0
2017-Oct-05 21:27N 01°16' E 103°53'0 0.1
2017-Oct-05 20:55N 01°16' E 103°53'0 0.0
2017-Oct-05 20:30N 01°16' E 103°53'0 0.1
2017-Oct-05 19:54N 01°16' E 103°53'0 0.4
2017-Oct-05 19:29N 01°16' E 103°53'0 0.4
2017-Oct-05 19:00N 01°16' E 103°53'0 0.2
2017-Oct-05 18:22N 01°16' E 103°53'0 0.4
2017-Oct-05 18:00N 01°16' E 103°53'0 0.8
2017-Oct-05 17:30N 01°16' E 103°53'1 1.4
2017-Oct-05 17:00N 01°16' E 103°54'2 1.1
2017-Oct-05 15:30N 01°14' E 103°54'0 0.3
2017-Oct-05 14:59N 01°14' E 103°54'1 1.2
2017-Oct-05 14:30N 01°13' E 103°54'1 1.4
2017-Oct-05 14:00N 01°13' E 103°54'4 7.5
2017-Oct-05 13:29N 01°16' E 103°53'0 0.0
2017-Oct-05 12:55N 01°16' E 103°53'0 0.0
2017-Oct-05 12:29N 01°16' E 103°53'0 0.0
2017-Oct-05 11:55N 01°16' E 103°53'0 0.0
2017-Oct-05 11:29N 01°16' E 103°53'0 0.0
2017-Oct-05 11:00N 01°16' E 103°53'0 0.0
2017-Oct-05 10:29N 01°16' E 103°53'0 0.1
2017-Oct-05 09:34N 01°16' E 103°53'0 0.0
2017-Oct-05 09:11N 01°16' E 103°53'0 0.1
2017-Oct-05 08:59N 01°16' E 103°53'0 0.1
2017-Oct-05 08:14N 01°16' E 103°53'0 0.0
2017-Oct-05 07:55N 01°16' E 103°53'0 0.0
2017-Oct-05 07:29N 01°16' E 103°53'0 0.0
2017-Oct-05 06:58N 01°16' E 103°53'0 0.1
2017-Oct-05 06:30N 01°16' E 103°53'0 0.4
2017-Oct-05 06:00N 01°16' E 103°53'3 5.1
2017-Oct-05 05:30N 01°14' E 103°54'2 4.5
2017-Oct-05 05:00N 01°12' E 103°53'510.0
2017-Oct-05 04:30N 01°10' E 103°49'4 8.3
2017-Oct-05 04:00N 01°07' E 103°45'4 8.6
2017-Oct-05 03:30N 01°04' E 103°42'5 9.8
2017-Oct-05 03:00N 01°04' E 103°37'713.1
2017-Oct-05 02:30N 01°07' E 103°32'714.0
2017-Oct-05 02:00N 01°11' E 103°26'814.1
2017-Oct-05 01:27N 01°16' E 103°20'  

Dump ship's entire track history